sensor_id;sensor_type;location;lat;lon;timestamp;P1;durP1;ratioP1;P2;durP2;ratioP2
39102;SDS011;24847;48.218;16.414;2022-12-07T00:04:24;6.40;;;5.53;;
39102;SDS011;24847;48.218;16.414;2022-12-07T00:09:26;7.00;;;5.75;;
39102;SDS011;24847;48.218;16.414;2022-12-07T00:14:29;7.05;;;5.57;;
39102;SDS011;24847;48.218;16.414;2022-12-07T00:19:32;6.30;;;5.20;;
39102;SDS011;24847;48.218;16.414;2022-12-07T00:24:34;5.65;;;4.80;;
39102;SDS011;24847;48.218;16.414;2022-12-07T00:29:38;5.38;;;4.40;;
39102;SDS011;24847;48.218;16.414;2022-12-07T00:34:42;6.68;;;5.63;;
39102;SDS011;24847;48.218;16.414;2022-12-07T00:39:45;5.22;;;4.72;;
39102;SDS011;24847;48.218;16.414;2022-12-07T00:44:47;6.22;;;5.63;;
39102;SDS011;24847;48.218;16.414;2022-12-07T00:49:51;6.38;;;5.78;;
39102;SDS011;24847;48.218;16.414;2022-12-07T00:54:53;6.03;;;5.40;;
39102;SDS011;24847;48.218;16.414;2022-12-07T00:59:56;6.95;;;6.25;;
39102;SDS011;24847;48.218;16.414;2022-12-07T01:05:00;6.97;;;6.00;;
39102;SDS011;24847;48.218;16.414;2022-12-07T01:10:03;6.97;;;6.18;;
39102;SDS011;24847;48.218;16.414;2022-12-07T01:15:07;8.32;;;6.57;;
39102;SDS011;24847;48.218;16.414;2022-12-07T01:20:12;7.47;;;6.68;;
39102;SDS011;24847;48.218;16.414;2022-12-07T01:25:16;8.23;;;6.60;;
39102;SDS011;24847;48.218;16.414;2022-12-07T01:30:18;7.82;;;6.97;;
39102;SDS011;24847;48.218;16.414;2022-12-07T01:35:22;8.23;;;6.80;;
39102;SDS011;24847;48.218;16.414;2022-12-07T01:40:24;7.72;;;6.75;;
39102;SDS011;24847;48.218;16.414;2022-12-07T01:50:48;8.32;;;6.88;;
39102;SDS011;24847;48.218;16.414;2022-12-07T01:55:53;7.80;;;7.00;;
39102;SDS011;24847;48.218;16.414;2022-12-07T02:00:57;8.40;;;7.00;;
39102;SDS011;24847;48.218;16.414;2022-12-07T02:06:01;7.78;;;6.78;;
39102;SDS011;24847;48.218;16.414;2022-12-07T02:11:04;7.88;;;7.07;;
39102;SDS011;24847;48.218;16.414;2022-12-07T02:16:10;7.68;;;6.65;;
39102;SDS011;24847;48.218;16.414;2022-12-07T02:21:29;8.00;;;7.07;;
39102;SDS011;24847;48.218;16.414;2022-12-07T02:32:21;7.30;;;6.38;;
39102;SDS011;24847;48.218;16.414;2022-12-07T02:37:32;8.70;;;6.97;;
39102;SDS011;24847;48.218;16.414;2022-12-07T02:42:42;7.47;;;6.68;;
39102;SDS011;24847;48.218;16.414;2022-12-07T02:47:51;9.25;;;6.70;;
39102;SDS011;24847;48.218;16.414;2022-12-07T02:52:58;8.18;;;6.78;;
39102;SDS011;24847;48.218;16.414;2022-12-07T02:58:05;8.02;;;7.05;;
39102;SDS011;24847;48.218;16.414;2022-12-07T03:03:26;7.28;;;6.10;;
39102;SDS011;24847;48.218;16.414;2022-12-07T03:08:31;7.78;;;6.53;;
39102;SDS011;24847;48.218;16.414;2022-12-07T03:13:45;7.20;;;6.05;;
39102;SDS011;24847;48.218;16.414;2022-12-07T03:18:55;8.50;;;7.18;;
39102;SDS011;24847;48.218;16.414;2022-12-07T03:24:03;8.23;;;6.40;;
39102;SDS011;24847;48.218;16.414;2022-12-07T03:29:12;8.27;;;6.93;;
39102;SDS011;24847;48.218;16.414;2022-12-07T03:34:23;9.27;;;6.33;;
39102;SDS011;24847;48.218;16.414;2022-12-07T03:39:30;9.13;;;6.22;;
39102;SDS011;24847;48.218;16.414;2022-12-07T03:44:38;7.40;;;6.10;;
39102;SDS011;24847;48.218;16.414;2022-12-07T03:49:43;8.30;;;6.20;;
39102;SDS011;24847;48.218;16.414;2022-12-07T03:54:53;7.70;;;6.40;;
39102;SDS011;24847;48.218;16.414;2022-12-07T04:00:10;7.60;;;6.05;;
39102;SDS011;24847;48.218;16.414;2022-12-07T04:05:17;7.75;;;6.32;;
39102;SDS011;24847;48.218;16.414;2022-12-07T04:10:20;6.85;;;5.78;;
39102;SDS011;24847;48.218;16.414;2022-12-07T04:15:22;6.97;;;5.72;;
39102;SDS011;24847;48.218;16.414;2022-12-07T04:20:26;7.00;;;5.55;;
39102;SDS011;24847;48.218;16.414;2022-12-07T04:25:28;7.72;;;6.10;;
39102;SDS011;24847;48.218;16.414;2022-12-07T04:30:30;13.23;;;8.88;;
39102;SDS011;24847;48.218;16.414;2022-12-07T04:35:34;8.10;;;6.38;;
39102;SDS011;24847;48.218;16.414;2022-12-07T04:40:36;9.30;;;6.18;;
39102;SDS011;24847;48.218;16.414;2022-12-07T04:45:38;5.93;;;4.85;;
39102;SDS011;24847;48.218;16.414;2022-12-07T04:50:42;7.22;;;5.85;;
39102;SDS011;24847;48.218;16.414;2022-12-07T04:55:44;7.18;;;5.68;;
39102;SDS011;24847;48.218;16.414;2022-12-07T05:00:47;7.47;;;5.75;;
39102;SDS011;24847;48.218;16.414;2022-12-07T05:05:51;7.72;;;6.35;;
39102;SDS011;24847;48.218;16.414;2022-12-07T05:10:53;6.07;;;5.13;;
39102;SDS011;24847;48.218;16.414;2022-12-07T05:15:55;6.20;;;5.53;;
39102;SDS011;24847;48.218;16.414;2022-12-07T05:20:59;7.03;;;5.63;;
39102;SDS011;24847;48.218;16.414;2022-12-07T05:26:01;6.97;;;5.18;;
39102;SDS011;24847;48.218;16.414;2022-12-07T05:31:03;7.13;;;4.57;;
39102;SDS011;24847;48.218;16.414;2022-12-07T05:36:08;6.13;;;4.70;;
39102;SDS011;24847;48.218;16.414;2022-12-07T05:41:11;5.75;;;4.30;;
39102;SDS011;24847;48.218;16.414;2022-12-07T05:46:30;5.55;;;4.30;;
39102;SDS011;24847;48.218;16.414;2022-12-07T05:51:34;4.75;;;4.20;;
39102;SDS011;24847;48.218;16.414;2022-12-07T05:56:36;5.35;;;4.13;;
39102;SDS011;24847;48.218;16.414;2022-12-07T06:01:38;6.72;;;3.67;;
39102;SDS011;24847;48.218;16.414;2022-12-07T06:06:42;5.03;;;3.97;;
39102;SDS011;24847;48.218;16.414;2022-12-07T06:11:44;4.93;;;4.03;;
39102;SDS011;24847;48.218;16.414;2022-12-07T06:22:08;4.30;;;3.28;;
39102;SDS011;24847;48.218;16.414;2022-12-07T06:27:11;5.45;;;3.47;;
39102;SDS011;24847;48.218;16.414;2022-12-07T06:32:14;4.47;;;4.07;;
39102;SDS011;24847;48.218;16.414;2022-12-07T06:37:18;6.25;;;4.40;;
39102;SDS011;24847;48.218;16.414;2022-12-07T06:42:20;6.05;;;4.00;;
39102;SDS011;24847;48.218;16.414;2022-12-07T06:47:22;4.80;;;3.72;;
39102;SDS011;24847;48.218;16.414;2022-12-07T06:52:25;4.30;;;3.78;;
39102;SDS011;24847;48.218;16.414;2022-12-07T06:57:28;5.00;;;3.88;;
39102;SDS011;24847;48.218;16.414;2022-12-07T07:02:30;4.82;;;3.67;;
39102;SDS011;24847;48.218;16.414;2022-12-07T07:07:34;4.70;;;3.80;;
39102;SDS011;24847;48.218;16.414;2022-12-07T07:12:36;4.60;;;3.63;;
39102;SDS011;24847;48.218;16.414;2022-12-07T07:17:39;6.57;;;3.88;;
39102;SDS011;24847;48.218;16.414;2022-12-07T07:22:43;5.85;;;3.70;;
39102;SDS011;24847;48.218;16.414;2022-12-07T07:27:45;4.60;;;3.70;;
39102;SDS011;24847;48.218;16.414;2022-12-07T07:32:48;4.20;;;3.50;;
39102;SDS011;24847;48.218;16.414;2022-12-07T07:37:51;3.28;;;2.97;;
39102;SDS011;24847;48.218;16.414;2022-12-07T07:42:53;4.13;;;3.42;;
39102;SDS011;24847;48.218;16.414;2022-12-07T07:47:56;3.85;;;3.30;;
39102;SDS011;24847;48.218;16.414;2022-12-07T07:53:00;5.60;;;3.47;;
39102;SDS011;24847;48.218;16.414;2022-12-07T07:58:02;4.95;;;3.42;;
39102;SDS011;24847;48.218;16.414;2022-12-07T08:03:04;5.72;;;3.70;;
39102;SDS011;24847;48.218;16.414;2022-12-07T08:08:08;4.10;;;3.63;;
39102;SDS011;24847;48.218;16.414;2022-12-07T08:13:10;4.28;;;3.63;;
39102;SDS011;24847;48.218;16.414;2022-12-07T08:18:14;5.32;;;3.50;;
39102;SDS011;24847;48.218;16.414;2022-12-07T08:23:18;5.78;;;4.30;;
39102;SDS011;24847;48.218;16.414;2022-12-07T08:28:20;5.63;;;4.45;;
39102;SDS011;24847;48.218;16.414;2022-12-07T08:33:22;5.70;;;4.03;;
39102;SDS011;24847;48.218;16.414;2022-12-07T08:38:26;5.30;;;4.32;;
39102;SDS011;24847;48.218;16.414;2022-12-07T08:43:29;4.13;;;3.72;;
39102;SDS011;24847;48.218;16.414;2022-12-07T08:48:31;4.45;;;3.70;;
39102;SDS011;24847;48.218;16.414;2022-12-07T08:53:36;4.55;;;4.10;;
39102;SDS011;24847;48.218;16.414;2022-12-07T08:58:39;6.22;;;4.70;;
39102;SDS011;24847;48.218;16.414;2022-12-07T09:03:42;4.57;;;4.10;;
39102;SDS011;24847;48.218;16.414;2022-12-07T09:08:47;4.82;;;3.58;;
39102;SDS011;24847;48.218;16.414;2022-12-07T09:13:53;3.15;;;2.85;;
39102;SDS011;24847;48.218;16.414;2022-12-07T09:18:56;4.28;;;3.88;;
39102;SDS011;24847;48.218;16.414;2022-12-07T09:24:00;4.20;;;3.80;;
39102;SDS011;24847;48.218;16.414;2022-12-07T09:29:02;3.67;;;3.30;;
39102;SDS011;24847;48.218;16.414;2022-12-07T09:34:04;4.72;;;3.83;;
39102;SDS011;24847;48.218;16.414;2022-12-07T09:39:08;5.47;;;4.15;;
39102;SDS011;24847;48.218;16.414;2022-12-07T09:44:12;4.70;;;4.20;;
39102;SDS011;24847;48.218;16.414;2022-12-07T09:49:16;4.97;;;4.40;;
39102;SDS011;24847;48.218;16.414;2022-12-07T09:54:23;4.72;;;4.28;;
39102;SDS011;24847;48.218;16.414;2022-12-07T09:59:26;5.07;;;4.40;;
39102;SDS011;24847;48.218;16.414;2022-12-07T10:04:28;5.60;;;4.90;;
39102;SDS011;24847;48.218;16.414;2022-12-07T10:09:32;4.05;;;3.65;;
39102;SDS011;24847;48.218;16.414;2022-12-07T10:14:36;4.57;;;4.18;;
39102;SDS011;24847;48.218;16.414;2022-12-07T10:19:40;4.68;;;4.18;;
39102;SDS011;24847;48.218;16.414;2022-12-07T10:24:46;4.38;;;3.97;;
39102;SDS011;24847;48.218;16.414;2022-12-07T10:29:49;4.53;;;3.88;;
39102;SDS011;24847;48.218;16.414;2022-12-07T10:34:56;5.15;;;4.65;;
39102;SDS011;24847;48.218;16.414;2022-12-07T10:40:27;4.22;;;3.65;;
39102;SDS011;24847;48.218;16.414;2022-12-07T10:45:34;3.53;;;3.22;;
39102;SDS011;24847;48.218;16.414;2022-12-07T10:50:56;3.88;;;3.58;;
39102;SDS011;24847;48.218;16.414;2022-12-07T10:56:18;4.38;;;3.67;;
39102;SDS011;24847;48.218;16.414;2022-12-07T11:01:38;3.95;;;3.45;;
39102;SDS011;24847;48.218;16.414;2022-12-07T11:06:47;4.37;;;3.90;;
39102;SDS011;24847;48.218;16.414;2022-12-07T11:12:03;4.10;;;3.30;;
39102;SDS011;24847;48.218;16.414;2022-12-07T11:17:14;4.68;;;4.18;;
39102;SDS011;24847;48.218;16.414;2022-12-07T11:22:26;4.70;;;3.50;;
39102;SDS011;24847;48.218;16.414;2022-12-07T11:27:40;4.63;;;3.70;;
39102;SDS011;24847;48.218;16.414;2022-12-07T11:38:20;3.53;;;3.20;;
39102;SDS011;24847;48.218;16.414;2022-12-07T11:43:36;3.45;;;2.92;;
39102;SDS011;24847;48.218;16.414;2022-12-07T11:48:40;6.63;;;4.15;;
39102;SDS011;24847;48.218;16.414;2022-12-07T11:53:49;3.97;;;3.45;;
39102;SDS011;24847;48.218;16.414;2022-12-07T11:59:00;3.13;;;2.83;;
39102;SDS011;24847;48.218;16.414;2022-12-07T12:04:15;4.00;;;3.47;;
39102;SDS011;24847;48.218;16.414;2022-12-07T12:09:29;4.50;;;3.63;;
39102;SDS011;24847;48.218;16.414;2022-12-07T12:14:39;3.10;;;2.80;;
39102;SDS011;24847;48.218;16.414;2022-12-07T12:19:58;3.35;;;3.05;;
39102;SDS011;24847;48.218;16.414;2022-12-07T12:25:06;3.10;;;2.80;;
39102;SDS011;24847;48.218;16.414;2022-12-07T12:30:29;4.18;;;3.40;;
39102;SDS011;24847;48.218;16.414;2022-12-07T12:35:36;4.20;;;2.78;;
39102;SDS011;24847;48.218;16.414;2022-12-07T12:40:42;3.28;;;2.85;;
39102;SDS011;24847;48.218;16.414;2022-12-07T12:51:40;3.47;;;3.10;;
39102;SDS011;24847;48.218;16.414;2022-12-07T12:56:46;3.80;;;3.35;;
39102;SDS011;24847;48.218;16.414;2022-12-07T13:01:56;4.25;;;3.75;;
39102;SDS011;24847;48.218;16.414;2022-12-07T13:12:59;4.65;;;3.83;;
39102;SDS011;24847;48.218;16.414;2022-12-07T13:23:36;4.80;;;3.88;;
39102;SDS011;24847;48.218;16.414;2022-12-07T13:28:41;4.38;;;3.80;;
39102;SDS011;24847;48.218;16.414;2022-12-07T13:33:47;3.92;;;3.55;;
39102;SDS011;24847;48.218;16.414;2022-12-07T13:38:54;5.35;;;4.28;;
39102;SDS011;24847;48.218;16.414;2022-12-07T13:44:02;4.88;;;4.38;;
39102;SDS011;24847;48.218;16.414;2022-12-07T13:49:21;5.63;;;4.65;;
39102;SDS011;24847;48.218;16.414;2022-12-07T13:54:25;4.85;;;4.13;;
39102;SDS011;24847;48.218;16.414;2022-12-07T13:59:28;5.15;;;4.40;;
39102;SDS011;24847;48.218;16.414;2022-12-07T14:04:35;5.17;;;3.57;;
39102;SDS011;24847;48.218;16.414;2022-12-07T14:09:38;4.80;;;4.30;;
39102;SDS011;24847;48.218;16.414;2022-12-07T14:14:45;4.88;;;3.83;;
39102;SDS011;24847;48.218;16.414;2022-12-07T14:19:51;5.15;;;4.40;;
39102;SDS011;24847;48.218;16.414;2022-12-07T14:30:26;5.50;;;4.50;;
39102;SDS011;24847;48.218;16.414;2022-12-07T14:35:32;5.57;;;4.60;;
39102;SDS011;24847;48.218;16.414;2022-12-07T14:40:34;5.07;;;4.45;;
39102;SDS011;24847;48.218;16.414;2022-12-07T14:45:37;5.38;;;4.65;;
39102;SDS011;24847;48.218;16.414;2022-12-07T14:50:42;7.03;;;4.80;;
39102;SDS011;24847;48.218;16.414;2022-12-07T14:55:47;5.78;;;4.70;;
39102;SDS011;24847;48.218;16.414;2022-12-07T15:00:50;5.63;;;5.03;;
39102;SDS011;24847;48.218;16.414;2022-12-07T15:05:54;5.93;;;4.38;;
39102;SDS011;24847;48.218;16.414;2022-12-07T15:10:56;4.40;;;3.88;;
39102;SDS011;24847;48.218;16.414;2022-12-07T15:15:59;9.27;;;6.70;;
39102;SDS011;24847;48.218;16.414;2022-12-07T15:21:02;5.38;;;4.72;;
39102;SDS011;24847;48.218;16.414;2022-12-07T15:26:05;6.35;;;5.25;;
39102;SDS011;24847;48.218;16.414;2022-12-07T15:31:10;5.68;;;4.75;;
39102;SDS011;24847;48.218;16.414;2022-12-07T15:36:18;7.25;;;5.65;;
39102;SDS011;24847;48.218;16.414;2022-12-07T15:41:22;6.60;;;5.57;;
39102;SDS011;24847;48.218;16.414;2022-12-07T15:46:28;7.43;;;5.60;;
39102;SDS011;24847;48.218;16.414;2022-12-07T15:51:33;6.03;;;5.20;;
39102;SDS011;24847;48.218;16.414;2022-12-07T15:56:36;12.90;;;9.40;;
39102;SDS011;24847;48.218;16.414;2022-12-07T16:01:38;9.25;;;6.97;;
39102;SDS011;24847;48.218;16.414;2022-12-07T16:06:42;7.38;;;6.20;;
39102;SDS011;24847;48.218;16.414;2022-12-07T16:11:44;9.32;;;6.68;;
39102;SDS011;24847;48.218;16.414;2022-12-07T16:16:46;6.72;;;5.53;;
39102;SDS011;24847;48.218;16.414;2022-12-07T16:21:51;11.05;;;8.32;;
39102;SDS011;24847;48.218;16.414;2022-12-07T16:26:53;7.82;;;6.43;;
39102;SDS011;24847;48.218;16.414;2022-12-07T16:31:55;6.82;;;6.13;;
39102;SDS011;24847;48.218;16.414;2022-12-07T16:36:58;9.18;;;6.40;;
39102;SDS011;24847;48.218;16.414;2022-12-07T16:42:01;7.07;;;5.78;;
39102;SDS011;24847;48.218;16.414;2022-12-07T16:47:04;8.50;;;6.70;;
39102;SDS011;24847;48.218;16.414;2022-12-07T16:52:08;6.63;;;5.50;;
39102;SDS011;24847;48.218;16.414;2022-12-07T16:57:10;7.90;;;6.53;;
39102;SDS011;24847;48.218;16.414;2022-12-07T17:02:12;7.18;;;5.65;;
39102;SDS011;24847;48.218;16.414;2022-12-07T17:07:16;7.18;;;6.30;;
39102;SDS011;24847;48.218;16.414;2022-12-07T17:12:18;8.98;;;6.97;;
39102;SDS011;24847;48.218;16.414;2022-12-07T17:17:21;6.95;;;5.65;;
39102;SDS011;24847;48.218;16.414;2022-12-07T17:22:25;7.55;;;6.00;;
39102;SDS011;24847;48.218;16.414;2022-12-07T17:27:27;7.97;;;6.78;;
39102;SDS011;24847;48.218;16.414;2022-12-07T17:32:30;8.18;;;6.13;;
39102;SDS011;24847;48.218;16.414;2022-12-07T17:37:35;9.13;;;6.95;;
39102;SDS011;24847;48.218;16.414;2022-12-07T17:42:38;7.82;;;6.30;;
39102;SDS011;24847;48.218;16.414;2022-12-07T17:47:41;9.18;;;6.70;;
39102;SDS011;24847;48.218;16.414;2022-12-07T17:52:46;10.07;;;7.97;;
39102;SDS011;24847;48.218;16.414;2022-12-07T17:58:17;10.27;;;7.95;;
39102;SDS011;24847;48.218;16.414;2022-12-07T18:03:20;10.00;;;7.57;;
39102;SDS011;24847;48.218;16.414;2022-12-07T18:08:24;9.25;;;6.70;;
39102;SDS011;24847;48.218;16.414;2022-12-07T18:13:27;8.55;;;7.13;;
39102;SDS011;24847;48.218;16.414;2022-12-07T18:18:39;10.27;;;7.07;;
39102;SDS011;24847;48.218;16.414;2022-12-07T18:23:45;12.68;;;7.20;;
39102;SDS011;24847;48.218;16.414;2022-12-07T18:28:49;8.93;;;6.95;;
39102;SDS011;24847;48.218;16.414;2022-12-07T18:33:55;8.18;;;6.68;;
39102;SDS011;24847;48.218;16.414;2022-12-07T18:39:04;8.90;;;6.55;;
39102;SDS011;24847;48.218;16.414;2022-12-07T18:44:08;8.27;;;5.90;;
39102;SDS011;24847;48.218;16.414;2022-12-07T18:49:13;7.80;;;6.18;;
39102;SDS011;24847;48.218;16.414;2022-12-07T18:54:21;7.75;;;5.80;;
39102;SDS011;24847;48.218;16.414;2022-12-07T18:59:24;8.55;;;5.57;;
39102;SDS011;24847;48.218;16.414;2022-12-07T19:04:53;7.35;;;5.78;;
39102;SDS011;24847;48.218;16.414;2022-12-07T19:09:58;6.97;;;5.63;;
39102;SDS011;24847;48.218;16.414;2022-12-07T19:15:01;8.52;;;5.45;;
39102;SDS011;24847;48.218;16.414;2022-12-07T19:20:07;7.80;;;6.05;;
39102;SDS011;24847;48.218;16.414;2022-12-07T19:25:15;7.95;;;5.97;;
39102;SDS011;24847;48.218;16.414;2022-12-07T19:30:18;7.18;;;5.65;;
39102;SDS011;24847;48.218;16.414;2022-12-07T19:35:21;7.22;;;5.65;;
39102;SDS011;24847;48.218;16.414;2022-12-07T19:40:27;7.40;;;5.75;;
39102;SDS011;24847;48.218;16.414;2022-12-07T19:45:42;6.78;;;5.18;;
39102;SDS011;24847;48.218;16.414;2022-12-07T19:50:46;7.05;;;4.85;;
39102;SDS011;24847;48.218;16.414;2022-12-07T19:55:51;7.07;;;4.80;;
39102;SDS011;24847;48.218;16.414;2022-12-07T20:00:54;6.10;;;4.93;;
39102;SDS011;24847;48.218;16.414;2022-12-07T20:06:06;7.78;;;4.70;;
39102;SDS011;24847;48.218;16.414;2022-12-07T20:11:12;4.32;;;3.60;;
39102;SDS011;24847;48.218;16.414;2022-12-07T20:16:36;5.75;;;4.40;;
39102;SDS011;24847;48.218;16.414;2022-12-07T20:21:39;4.68;;;3.97;;
39102;SDS011;24847;48.218;16.414;2022-12-07T20:26:49;4.95;;;4.10;;
39102;SDS011;24847;48.218;16.414;2022-12-07T20:31:58;4.90;;;4.10;;
39102;SDS011;24847;48.218;16.414;2022-12-07T20:37:02;5.30;;;4.07;;
39102;SDS011;24847;48.218;16.414;2022-12-07T20:42:08;4.90;;;4.07;;
39102;SDS011;24847;48.218;16.414;2022-12-07T20:47:29;5.43;;;4.13;;
39102;SDS011;24847;48.218;16.414;2022-12-07T20:52:39;4.47;;;3.88;;
39102;SDS011;24847;48.218;16.414;2022-12-07T20:57:42;6.25;;;4.97;;
39102;SDS011;24847;48.218;16.414;2022-12-07T21:02:45;5.53;;;4.45;;
39102;SDS011;24847;48.218;16.414;2022-12-07T21:07:47;5.57;;;4.10;;
39102;SDS011;24847;48.218;16.414;2022-12-07T21:12:51;6.60;;;5.13;;
39102;SDS011;24847;48.218;16.414;2022-12-07T21:17:54;6.63;;;4.82;;
39102;SDS011;24847;48.218;16.414;2022-12-07T21:22:56;5.57;;;4.75;;
39102;SDS011;24847;48.218;16.414;2022-12-07T21:28:00;5.95;;;4.82;;
39102;SDS011;24847;48.218;16.414;2022-12-07T21:33:03;5.85;;;4.78;;
39102;SDS011;24847;48.218;16.414;2022-12-07T21:38:05;6.60;;;5.07;;
39102;SDS011;24847;48.218;16.414;2022-12-07T21:43:09;7.20;;;5.47;;
39102;SDS011;24847;48.218;16.414;2022-12-07T21:48:11;6.22;;;5.35;;
39102;SDS011;24847;48.218;16.414;2022-12-07T21:53:13;5.93;;;5.00;;
39102;SDS011;24847;48.218;16.414;2022-12-07T21:58:17;6.97;;;5.40;;
39102;SDS011;24847;48.218;16.414;2022-12-07T22:03:19;6.80;;;5.60;;
39102;SDS011;24847;48.218;16.414;2022-12-07T22:08:22;5.68;;;4.68;;
39102;SDS011;24847;48.218;16.414;2022-12-07T22:13:29;6.55;;;4.95;;
39102;SDS011;24847;48.218;16.414;2022-12-07T22:18:52;6.40;;;5.13;;
39102;SDS011;24847;48.218;16.414;2022-12-07T22:23:56;6.25;;;4.50;;
39102;SDS011;24847;48.218;16.414;2022-12-07T22:29:00;5.82;;;4.63;;
39102;SDS011;24847;48.218;16.414;2022-12-07T22:34:03;4.32;;;3.90;;
39102;SDS011;24847;48.218;16.414;2022-12-07T22:39:05;6.03;;;4.63;;
39102;SDS011;24847;48.218;16.414;2022-12-07T22:44:11;11.32;;;7.43;;
39102;SDS011;24847;48.218;16.414;2022-12-07T22:49:13;21.73;;;13.57;;
39102;SDS011;24847;48.218;16.414;2022-12-07T22:54:15;6.25;;;4.95;;
39102;SDS011;24847;48.218;16.414;2022-12-07T22:59:19;5.43;;;4.32;;
39102;SDS011;24847;48.218;16.414;2022-12-07T23:04:22;6.47;;;4.15;;
39102;SDS011;24847;48.218;16.414;2022-12-07T23:09:24;5.18;;;3.65;;
39102;SDS011;24847;48.218;16.414;2022-12-07T23:14:29;4.40;;;3.63;;
39102;SDS011;24847;48.218;16.414;2022-12-07T23:19:33;4.70;;;3.60;;
39102;SDS011;24847;48.218;16.414;2022-12-07T23:24:36;4.28;;;3.40;;
39102;SDS011;24847;48.218;16.414;2022-12-07T23:29:39;20.83;;;14.65;;
39102;SDS011;24847;48.218;16.414;2022-12-07T23:34:42;5.45;;;4.53;;
39102;SDS011;24847;48.218;16.414;2022-12-07T23:39:44;3.45;;;2.90;;
39102;SDS011;24847;48.218;16.414;2022-12-07T23:44:48;3.33;;;2.97;;
39102;SDS011;24847;48.218;16.414;2022-12-07T23:49:50;3.55;;;2.80;;
39102;SDS011;24847;48.218;16.414;2022-12-07T23:54:53;3.80;;;2.83;;
39102;SDS011;24847;48.218;16.414;2022-12-07T23:59:56;3.88;;;2.90;;
